createdAt,value
2023-03-02T00:00:37.826Z,933.2
2023-03-02T00:15:38.782Z,933.1
2023-03-02T00:30:41.782Z,933.1
2023-03-02T00:45:39.415Z,932.7
2023-03-02T01:00:39.603Z,932.3
2023-03-02T01:15:40.955Z,932.2
2023-03-02T01:30:42.697Z,932.2
2023-03-02T01:45:46.191Z,932.2
2023-03-02T02:00:43.737Z,932.2
2023-03-02T02:01:27.735Z,932.2
2023-03-02T02:15:44.093Z,932.2
2023-03-02T02:30:44.021Z,932.5
2023-03-02T02:45:45.905Z,932.6
2023-03-02T03:00:48.672Z,932.6
2023-03-02T03:15:46.628Z,932.4
2023-03-02T03:30:50.048Z,932.4
2023-03-02T03:45:48.008Z,932.5
2023-03-02T04:00:48.565Z,932.6
2023-03-02T04:15:49.429Z,932.7
2023-03-02T04:30:49.965Z,932.7
2023-03-02T04:45:49.912Z,932.6
2023-03-02T05:00:51.359Z,932.7
2023-03-02T05:15:54.330Z,932.7
2023-03-02T05:30:52.405Z,932.6
2023-03-02T05:45:55.336Z,932.6
2023-03-02T05:52:37.281Z,932.7
2023-03-02T06:07:40.223Z,932.7
2023-03-02T06:22:38.219Z,932.8
2023-03-02T06:37:44.396Z,932.9
2023-03-02T06:52:39.650Z,932.6
2023-03-02T07:07:41.511Z,932.8
2023-03-02T07:22:41.494Z,932.8
2023-03-02T07:37:42.541Z,933
2023-03-02T07:52:43.002Z,932.6
2023-03-02T08:07:44.239Z,932.1
2023-03-02T08:22:43.851Z,931.4
2023-03-02T08:37:49.231Z,931.3
2023-03-02T08:52:47.847Z,931.1
2023-03-02T09:07:45.571Z,931.2
2023-03-02T09:22:45.668Z,931
2023-03-02T09:37:59.757Z,931
2023-03-02T10:07:59.813Z,931.3
2023-03-02T10:23:32.807Z,931.6
2023-03-02T10:38:01.116Z,931.5
2023-03-02T12:22:57.309Z,931.4
2023-03-02T12:37:56.181Z,931.4
2023-03-02T12:52:55.704Z,931.4
2023-03-02T13:07:56.887Z,931.5
2023-03-02T13:22:57.590Z,931.4
2023-03-02T13:37:58.407Z,931.5
2023-03-02T13:53:01.371Z,931.5
2023-03-02T14:08:00.590Z,931.6
2023-03-02T14:23:02.528Z,931.6
2023-03-02T14:38:04.388Z,931.7
2023-03-02T14:53:03.445Z,931.7
2023-03-02T15:08:12.848Z,932
2023-03-02T15:23:13.271Z,932.1
2023-03-02T15:38:04.752Z,932.3
2023-03-02T15:53:19.602Z,932.3
2023-03-02T16:08:05.526Z,932.5
2023-03-02T16:38:38.247Z,932.9
2023-03-02T16:53:06.739Z,933.6
2023-03-02T17:08:07.099Z,933.6
2023-03-02T17:23:10.004Z,933.6
2023-03-02T23:00:48.746Z,937
2023-03-02T23:15:34.529Z,937
2023-03-02T23:30:34.437Z,937.2
2023-03-02T23:45:36.230Z,937.2
